createdAt,value
2023-05-13T00:00:16.108Z,82.76
2023-05-13T00:01:19.044Z,82.45
2023-05-13T00:02:21.120Z,82.34
2023-05-13T00:03:24.090Z,82.49
2023-05-13T00:04:26.003Z,81.99
2023-05-13T00:05:27.882Z,82.22
2023-05-13T00:06:29.778Z,81.50
2023-05-13T00:07:31.745Z,81.57
2023-05-13T00:08:33.695Z,81.34
2023-05-13T00:09:35.589Z,81.28
2023-05-13T00:10:37.465Z,81.02
2023-05-13T00:11:39.340Z,81.25
2023-05-13T00:12:41.258Z,81.71
2023-05-13T00:13:43.186Z,81.51
2023-05-13T00:14:45.091Z,81.39
2023-05-13T00:15:46.894Z,81.28
2023-05-13T00:16:48.844Z,81.75
2023-05-13T00:17:50.864Z,81.50
2023-05-13T00:18:52.921Z,81.62
2023-05-13T00:19:54.810Z,82.09
2023-05-13T00:20:56.701Z,82.46
2023-05-13T00:21:58.687Z,82.19
2023-05-13T00:23:00.757Z,81.76
2023-05-13T00:24:02.785Z,81.89
2023-05-13T00:25:04.682Z,82.20
2023-05-13T00:26:06.741Z,81.72
2023-05-13T00:27:08.965Z,81.08
2023-05-13T00:28:11.522Z,81.48
2023-05-13T00:29:13.732Z,80.93
2023-05-13T00:30:15.599Z,81.01
2023-05-13T00:31:17.488Z,81.44
2023-05-13T00:32:19.438Z,81.08
2023-05-13T00:33:21.316Z,81.23
2023-05-13T00:34:23.336Z,81.26
2023-05-13T00:35:25.152Z,81.34
2023-05-13T00:36:27.746Z,81.35
2023-05-13T00:37:29.620Z,80.66
2023-05-13T00:38:31.469Z,80.57
2023-05-13T00:39:33.309Z,80.52
2023-05-13T00:40:38.344Z,80.60
2023-05-13T00:41:40.311Z,80.31
2023-05-13T00:42:42.266Z,80.29
2023-05-13T00:43:44.137Z,80.29
2023-05-13T00:44:46.120Z,80.31
2023-05-13T00:45:48.073Z,79.81
2023-05-13T00:46:50.074Z,80.21
2023-05-13T00:47:52.111Z,80.33
2023-05-13T00:48:54.068Z,79.98
2023-05-13T00:49:56.062Z,80.36
2023-05-13T00:50:57.868Z,80.72
2023-05-13T00:51:59.998Z,80.63
2023-05-13T00:53:02.249Z,80.75
2023-05-13T00:54:04.814Z,80.65
2023-05-13T00:55:07.359Z,80.52
2023-05-13T00:56:09.287Z,80.81
2023-05-13T00:57:11.086Z,80.40
2023-05-13T00:58:13.413Z,80.65
2023-05-13T00:59:15.294Z,80.10
2023-05-13T01:00:17.379Z,79.98
2023-05-13T01:01:23.528Z,80.32
2023-05-13T01:02:35.122Z,79.90
2023-05-13T01:03:37.000Z,80.36
2023-05-13T01:04:44.605Z,80.18
2023-05-13T01:06:10.393Z,80.41
2023-05-13T01:07:12.230Z,80.29
2023-05-13T01:08:34.263Z,80.89
2023-05-13T01:09:46.179Z,80.96
2023-05-13T01:10:51.610Z,80.23
2023-05-13T01:11:55.667Z,80.69
2023-05-13T01:12:59.226Z,80.61
2023-05-13T01:14:12.679Z,80.64
2023-05-13T01:15:16.544Z,80.43
2023-05-13T01:16:25.755Z,80.49
2023-05-13T01:17:37.517Z,79.61
2023-05-13T01:18:47.972Z,80.07
2023-05-13T01:19:54.904Z,79.71
2023-05-13T01:20:57.104Z,79.63
2023-05-13T01:21:59.251Z,79.51
2023-05-13T01:23:01.276Z,79.78
2023-05-13T01:24:03.097Z,80.20
2023-05-13T01:25:05.076Z,79.95
2023-05-13T01:26:06.993Z,79.58
2023-05-13T01:27:09.148Z,79.64
2023-05-13T01:28:11.184Z,79.62
2023-05-13T01:29:13.205Z,79.46
2023-05-13T01:30:15.438Z,79.76
2023-05-13T01:31:18.018Z,80.09
2023-05-13T01:32:20.862Z,79.94
2023-05-13T01:33:23.785Z,80.37
2023-05-13T01:34:26.063Z,80.09
2023-05-13T01:35:28.849Z,80.41
2023-05-13T01:36:31.105Z,80.46
2023-05-13T01:37:33.367Z,80.37
2023-05-13T01:38:36.162Z,80.23
2023-05-13T01:39:38.845Z,80.29
2023-05-13T01:40:41.922Z,80.45
2023-05-13T01:41:45.080Z,80.35
2023-05-13T01:42:47.180Z,80.60
2023-05-13T01:43:49.012Z,80.40
2023-05-13T01:44:52.019Z,80.03
2023-05-13T01:45:53.934Z,80.40
2023-05-13T01:46:56.004Z,80.82
2023-05-13T01:47:58.028Z,80.56
2023-05-13T01:49:00.052Z,80.55
2023-05-13T01:50:01.928Z,80.58
2023-05-13T01:51:05.123Z,80.85
2023-05-13T01:52:07.128Z,80.73
2023-05-13T01:53:08.994Z,80.77
2023-05-13T01:54:10.987Z,80.79
2023-05-13T01:55:12.780Z,80.48
2023-05-13T01:56:14.548Z,80.01
2023-05-13T01:57:16.381Z,80.76
2023-05-13T01:58:18.227Z,80.73
2023-05-13T01:59:20.203Z,80.72
2023-05-13T02:00:22.446Z,80.71
2023-05-13T02:01:24.832Z,80.29
2023-05-13T02:02:27.277Z,80.62
2023-05-13T02:03:29.243Z,80.91
2023-05-13T02:04:31.373Z,80.86
2023-05-13T02:05:33.507Z,80.71
2023-05-13T02:06:35.341Z,80.73
2023-05-13T02:07:37.437Z,80.62
2023-05-13T02:08:39.264Z,80.45
2023-05-13T02:09:41.164Z,80.68
2023-05-13T02:10:43.100Z,80.85
2023-05-13T02:11:46.029Z,80.46
2023-05-13T02:12:48.326Z,80.49
2023-05-13T02:13:50.269Z,80.74
2023-05-13T02:14:52.100Z,80.45
2023-05-13T02:15:54.585Z,80.29
2023-05-13T02:16:56.477Z,79.83
2023-05-13T02:17:58.378Z,79.98
2023-05-13T02:19:00.330Z,80.02
2023-05-13T02:20:02.320Z,80.13
2023-05-13T02:21:04.170Z,80.46
2023-05-13T02:22:06.220Z,80.36
2023-05-13T02:23:08.321Z,80.40
2023-05-13T02:24:10.396Z,80.79
2023-05-13T02:25:12.334Z,80.84
2023-05-13T02:26:14.258Z,80.71
2023-05-13T02:27:16.839Z,80.34
2023-05-13T02:28:18.717Z,80.77
2023-05-13T02:29:20.556Z,80.44
2023-05-13T02:30:27.215Z,80.28
2023-05-13T02:31:29.067Z,80.38
2023-05-13T02:32:31.047Z,80.81
2023-05-13T02:33:32.912Z,80.41
2023-05-13T02:34:34.709Z,80.48
2023-05-13T02:35:36.575Z,80.31
2023-05-13T02:36:39.177Z,80.21
2023-05-13T02:37:41.066Z,80.71
2023-05-13T02:38:42.954Z,80.88
2023-05-13T02:39:44.771Z,80.99
2023-05-13T02:40:46.696Z,80.42
2023-05-13T02:41:48.732Z,80.62
2023-05-13T02:42:51.208Z,80.24
2023-05-13T02:43:53.076Z,80.03
2023-05-13T02:44:55.048Z,80.04
2023-05-13T02:45:56.932Z,80.01
2023-05-13T02:46:58.897Z,80.25
2023-05-13T02:48:00.804Z,79.95
2023-05-13T02:49:02.867Z,80.18
2023-05-13T02:50:06.487Z,79.82
2023-05-13T02:51:09.845Z,80.14
2023-05-13T02:52:11.707Z,80.02
2023-05-13T02:53:13.557Z,79.85
2023-05-13T02:54:15.567Z,80.03
2023-05-13T02:55:17.559Z,80.59
2023-05-13T02:56:19.640Z,80.35
2023-05-13T02:57:21.587Z,80.72
2023-05-13T02:58:23.441Z,81.13
2023-05-13T02:59:25.860Z,80.60
2023-05-13T03:00:27.700Z,80.54
2023-05-13T03:01:29.709Z,80.01
2023-05-13T03:02:32.454Z,80.03
2023-05-13T03:03:34.470Z,80.47
2023-05-13T03:04:36.459Z,80.78
2023-05-13T03:05:38.291Z,80.74
2023-05-13T03:06:40.124Z,80.57
2023-05-13T03:07:42.064Z,80.60
2023-05-13T03:08:43.958Z,80.78
2023-05-13T03:09:45.965Z,80.57
2023-05-13T03:10:47.809Z,80.83
2023-05-13T03:11:49.692Z,80.77
2023-05-13T03:12:51.703Z,81.10
2023-05-13T03:13:53.657Z,81.09
2023-05-13T03:14:55.601Z,81.07
2023-05-13T03:15:57.564Z,81.01
2023-05-13T03:16:59.444Z,80.98
2023-05-13T03:18:01.586Z,80.76
2023-05-13T03:19:03.630Z,80.96
2023-05-13T03:20:05.856Z,80.90
2023-05-13T03:21:07.752Z,80.55
2023-05-13T03:22:09.978Z,80.63
2023-05-13T03:23:11.836Z,80.56
2023-05-13T03:24:13.666Z,80.54
2023-05-13T03:25:15.675Z,80.78
2023-05-13T03:26:17.559Z,80.56
2023-05-13T03:27:19.650Z,80.84
2023-05-13T03:28:21.669Z,80.83
2023-05-13T03:29:23.649Z,80.91
2023-05-13T03:30:25.589Z,80.76
2023-05-13T03:31:27.541Z,80.32
2023-05-13T03:32:31.847Z,80.85
2023-05-13T03:33:33.717Z,80.86
2023-05-13T03:34:36.697Z,80.74
2023-05-13T03:35:39.315Z,80.71
2023-05-13T03:36:41.354Z,80.78
2023-05-13T03:37:43.194Z,80.77
2023-05-13T03:38:45.031Z,80.42
2023-05-13T03:39:46.890Z,80.78
2023-05-13T03:40:48.748Z,80.79
2023-05-13T03:41:50.590Z,80.72
2023-05-13T03:42:52.463Z,80.50
2023-05-13T03:43:54.752Z,80.39
2023-05-13T03:44:57.503Z,80.42
2023-05-13T03:45:59.398Z,80.32
2023-05-13T03:47:01.389Z,80.77
2023-05-13T03:48:03.404Z,81.29
2023-05-13T03:49:05.320Z,81.54
2023-05-13T03:50:07.670Z,81.47
2023-05-13T03:51:09.488Z,81.68
2023-05-13T03:52:11.339Z,81.96
2023-05-13T03:53:13.236Z,82.00
2023-05-13T03:54:15.085Z,82.00
2023-05-13T03:55:17.028Z,81.96
2023-05-13T03:56:18.814Z,81.76
2023-05-13T03:57:20.702Z,82.10
2023-05-13T03:58:23.268Z,82.21
2023-05-13T03:59:25.191Z,81.82
2023-05-13T04:00:27.084Z,82.22
2023-05-13T04:01:30.145Z,82.42
2023-05-13T04:02:32.152Z,81.92
2023-05-13T04:03:34.840Z,81.87
2023-05-13T04:04:36.698Z,81.95
2023-05-13T04:05:38.699Z,81.56
2023-05-13T04:06:40.579Z,82.00
2023-05-13T04:07:42.485Z,81.67
2023-05-13T04:08:44.817Z,81.17
2023-05-13T04:09:46.631Z,81.16
2023-05-13T04:10:48.708Z,80.89
2023-05-13T04:11:50.705Z,81.14
2023-05-13T04:12:52.552Z,81.02
2023-05-13T04:13:54.370Z,81.25
2023-05-13T04:14:56.289Z,81.13
2023-05-13T04:15:58.408Z,81.02
2023-05-13T04:17:00.387Z,80.68
2023-05-13T04:18:02.387Z,80.83
2023-05-13T04:19:04.442Z,80.83
2023-05-13T04:20:06.858Z,80.65
2023-05-13T04:21:09.472Z,80.82
2023-05-13T04:22:11.334Z,80.92
2023-05-13T04:23:13.317Z,80.62
2023-05-13T04:24:15.475Z,80.65
2023-05-13T04:25:17.347Z,80.64
2023-05-13T04:26:19.260Z,80.76
2023-05-13T04:27:21.209Z,80.71
2023-05-13T04:28:23.103Z,80.75
2023-05-13T04:29:24.949Z,80.42
2023-05-13T04:30:26.813Z,80.36
2023-05-13T04:31:28.770Z,80.50
2023-05-13T04:32:30.666Z,80.87
2023-05-13T04:33:32.540Z,80.80
2023-05-13T04:34:34.368Z,80.57
2023-05-13T04:35:36.245Z,80.76
2023-05-13T04:36:38.125Z,80.79
2023-05-13T04:37:39.998Z,80.70
2023-05-13T04:38:41.875Z,80.68
2023-05-13T04:39:46.650Z,80.65
2023-05-13T04:40:48.616Z,80.72
2023-05-13T04:41:50.667Z,80.81
2023-05-13T04:42:55.337Z,81.31
2023-05-13T04:43:57.169Z,81.21
2023-05-13T04:44:58.966Z,81.70
2023-05-13T04:46:00.840Z,81.55
2023-05-13T04:47:02.862Z,81.80
2023-05-13T04:48:04.717Z,82.23
2023-05-13T04:49:06.813Z,82.44
2023-05-13T04:50:09.280Z,82.27
2023-05-13T04:51:11.678Z,81.54
2023-05-13T04:52:14.289Z,81.29
2023-05-13T04:53:16.352Z,81.16
2023-05-13T04:54:18.203Z,80.79
2023-05-13T04:55:20.073Z,80.98
2023-05-13T04:56:22.108Z,80.58
2023-05-13T04:57:24.446Z,80.91
2023-05-13T04:58:27.218Z,80.64
2023-05-13T04:59:29.147Z,80.90
2023-05-13T05:00:31.081Z,81.11
2023-05-13T05:01:32.986Z,80.87
2023-05-13T05:02:34.963Z,81.29
2023-05-13T05:03:36.924Z,80.77
2023-05-13T05:04:38.874Z,81.02
2023-05-13T05:05:40.705Z,81.22
2023-05-13T05:06:42.613Z,81.17
2023-05-13T05:07:44.533Z,80.85
2023-05-13T05:08:46.412Z,81.13
2023-05-13T05:09:48.361Z,81.14
2023-05-13T05:10:50.199Z,80.75
2023-05-13T05:11:52.048Z,80.86
2023-05-13T05:12:53.994Z,81.00
2023-05-13T05:13:55.902Z,80.51
2023-05-13T05:14:57.789Z,80.59
2023-05-13T05:15:59.708Z,80.51
2023-05-13T05:17:01.581Z,80.84
2023-05-13T05:18:03.653Z,80.38
2023-05-13T05:19:05.751Z,80.47
2023-05-13T05:20:07.977Z,80.92
2023-05-13T05:21:10.638Z,80.52
2023-05-13T05:22:12.527Z,80.78
2023-05-13T05:23:14.602Z,80.94
2023-05-13T05:24:16.466Z,81.09
2023-05-13T05:25:18.889Z,80.91
2023-05-13T05:26:20.999Z,81.16
2023-05-13T05:27:22.934Z,81.16
2023-05-13T05:28:24.804Z,81.18
2023-05-13T05:29:26.730Z,81.59
2023-05-13T05:30:28.616Z,81.73
2023-05-13T05:31:31.269Z,82.04
2023-05-13T05:32:34.227Z,81.42
2023-05-13T05:33:36.544Z,81.82
2023-05-13T05:34:38.756Z,81.52
2023-05-13T05:35:40.641Z,81.46
2023-05-13T05:36:42.498Z,80.89
2023-05-13T05:37:44.375Z,81.05
2023-05-13T05:38:47.642Z,80.98
2023-05-13T05:39:49.606Z,81.33
2023-05-13T05:40:51.451Z,81.01
2023-05-13T05:41:53.544Z,81.36
2023-05-13T05:42:55.440Z,81.04
2023-05-13T05:43:57.293Z,80.84
2023-05-13T05:44:59.287Z,81.04
2023-05-13T05:46:01.159Z,80.45
2023-05-13T05:47:03.000Z,80.97
2023-05-13T05:48:06.054Z,80.42
2023-05-13T05:49:08.897Z,80.45
2023-05-13T05:50:11.668Z,80.13
2023-05-13T05:51:13.509Z,80.69
2023-05-13T05:52:15.346Z,80.67
2023-05-13T05:53:17.166Z,80.38
2023-05-13T05:54:19.101Z,80.63
2023-05-13T05:55:21.549Z,80.63
2023-05-13T05:56:23.392Z,80.54
2023-05-13T05:57:25.295Z,80.20
2023-05-13T05:58:29.728Z,80.17
2023-05-13T05:59:31.644Z,80.34
2023-05-13T06:00:33.779Z,79.78
2023-05-13T06:01:37.122Z,79.48
2023-05-13T06:02:39.328Z,79.68
2023-05-13T06:03:41.432Z,79.49
2023-05-13T06:04:43.569Z,79.53
2023-05-13T06:05:45.705Z,79.84
2023-05-13T06:06:47.622Z,80.25
2023-05-13T06:07:49.683Z,80.10
2023-05-13T06:08:51.518Z,80.38
2023-05-13T06:09:53.405Z,80.37
2023-05-13T06:10:55.228Z,80.42
2023-05-13T06:11:57.088Z,80.90
2023-05-13T06:12:59.103Z,79.84
2023-05-13T06:14:01.077Z,79.85
2023-05-13T06:15:03.029Z,80.26
2023-05-13T06:16:05.045Z,79.85
2023-05-13T06:17:06.955Z,79.63
2023-05-13T06:18:08.925Z,79.88
2023-05-13T06:19:10.909Z,79.92
2023-05-13T06:20:12.866Z,80.33
2023-05-13T06:21:14.810Z,80.92
2023-05-13T06:22:16.808Z,80.58
2023-05-13T06:23:18.722Z,81.27
2023-05-13T06:24:20.591Z,81.14
2023-05-13T06:25:22.469Z,81.21
2023-05-13T06:26:24.365Z,81.14
2023-05-13T06:27:26.199Z,81.24
2023-05-13T06:28:28.170Z,81.06
2023-05-13T06:29:30.054Z,81.29
2023-05-13T06:30:32.088Z,80.93
2023-05-13T06:31:33.951Z,80.40
2023-05-13T06:32:35.894Z,80.54
2023-05-13T06:33:37.896Z,80.44
2023-05-13T06:34:46.190Z,79.92
2023-05-13T06:35:49.882Z,80.17
2023-05-13T06:36:51.754Z,80.02
2023-05-13T06:37:54.182Z,80.21
2023-05-13T06:38:56.134Z,80.04
2023-05-13T06:39:58.812Z,80.28
2023-05-13T06:41:00.708Z,80.11
2023-05-13T06:42:02.626Z,79.94
2023-05-13T06:43:04.522Z,79.91
2023-05-13T06:44:06.990Z,79.89
2023-05-13T06:45:09.114Z,79.63
2023-05-13T06:46:10.934Z,79.66
2023-05-13T06:47:16.466Z,80.08
2023-05-13T06:48:18.520Z,80.13
2023-05-13T06:49:20.504Z,80.09
2023-05-13T06:50:22.645Z,80.13
2023-05-13T06:51:26.470Z,79.63
2023-05-13T06:52:28.384Z,79.48
2023-05-13T06:53:30.197Z,79.41
2023-05-13T06:54:32.482Z,79.28
2023-05-13T06:55:36.213Z,79.67
2023-05-13T06:56:38.133Z,79.37
2023-05-13T06:57:43.539Z,79.62
2023-05-13T06:58:45.736Z,79.34
2023-05-13T06:59:47.604Z,79.36
2023-05-13T07:00:49.733Z,78.75
2023-05-13T07:01:51.590Z,79.44
2023-05-13T07:02:53.421Z,79.47
2023-05-13T07:03:55.382Z,80.14
2023-05-13T07:04:57.289Z,79.73
2023-05-13T07:05:59.110Z,78.96
2023-05-13T07:07:00.989Z,78.87
2023-05-13T07:08:07.166Z,78.46
2023-05-13T07:09:11.665Z,78.51
2023-05-13T07:10:13.540Z,78.74
2023-05-13T07:11:15.543Z,78.82
2023-05-13T07:12:18.253Z,78.88
2023-05-13T07:13:21.218Z,78.70
2023-05-13T07:14:25.390Z,78.94
2023-05-13T07:15:27.371Z,78.64
2023-05-13T07:16:29.253Z,77.58
2023-05-13T07:17:31.707Z,78.45
2023-05-13T07:18:33.727Z,78.77
2023-05-13T07:19:35.766Z,79.34
2023-05-13T07:20:38.252Z,79.57
2023-05-13T07:21:40.108Z,79.63
2023-05-13T07:22:42.055Z,79.10
2023-05-13T07:23:44.809Z,79.03
2023-05-13T07:24:48.773Z,78.59
2023-05-13T07:25:52.846Z,78.33
2023-05-13T07:26:54.816Z,77.39
2023-05-13T07:27:56.656Z,77.39
2023-05-13T07:28:58.917Z,77.54
2023-05-13T07:30:00.780Z,77.29
2023-05-13T07:31:04.709Z,77.31
2023-05-13T07:32:06.983Z,77.52
2023-05-13T07:33:08.934Z,79.11
2023-05-13T07:34:11.031Z,78.22
2023-05-13T07:35:13.003Z,79.20
2023-05-13T07:36:14.899Z,78.61
2023-05-13T07:37:16.733Z,78.60
2023-05-13T07:38:18.792Z,78.63
2023-05-13T07:39:20.679Z,78.46
2023-05-13T07:40:22.923Z,78.58
2023-05-13T07:41:25.243Z,78.30
2023-05-13T07:42:28.314Z,78.46
2023-05-13T07:43:30.266Z,78.04
2023-05-13T07:44:32.110Z,78.50
2023-05-13T07:45:34.584Z,78.52
2023-05-13T07:46:36.480Z,78.40
2023-05-13T07:47:38.559Z,78.53
2023-05-13T07:48:40.493Z,78.52
2023-05-13T07:49:42.341Z,78.21
2023-05-13T07:50:47.402Z,78.24
2023-05-13T07:51:49.384Z,78.47
2023-05-13T07:52:52.128Z,78.44
2023-05-13T07:53:54.055Z,78.42
2023-05-13T07:54:55.933Z,78.08
2023-05-13T07:55:57.954Z,78.15
2023-05-13T07:56:59.818Z,78.62
2023-05-13T07:58:01.775Z,79.16
2023-05-13T07:59:04.138Z,78.86
2023-05-13T08:00:06.647Z,78.90
2023-05-13T08:01:08.546Z,78.71
2023-05-13T08:02:10.449Z,78.91
2023-05-13T08:03:12.812Z,78.81
2023-05-13T08:04:14.880Z,78.44
2023-05-13T08:05:16.879Z,78.37
2023-05-13T08:06:18.759Z,78.51
2023-05-13T08:07:20.695Z,78.36
2023-05-13T08:08:22.611Z,78.02
2023-05-13T08:09:24.939Z,78.21
2023-05-13T08:10:26.833Z,78.33
2023-05-13T08:11:29.231Z,78.41
2023-05-13T08:12:31.197Z,77.77
2023-05-13T08:13:33.011Z,78.00
2023-05-13T08:14:34.938Z,78.24
2023-05-13T08:15:37.408Z,77.98
2023-05-13T08:16:39.326Z,77.76
2023-05-13T08:17:41.273Z,77.30
2023-05-13T08:18:43.138Z,77.20
2023-05-13T08:19:45.032Z,77.25
2023-05-13T08:20:46.935Z,77.32
2023-05-13T08:21:48.880Z,77.32
2023-05-13T08:22:50.933Z,77.59
2023-05-13T08:23:52.811Z,77.30
2023-05-13T08:24:54.869Z,77.27
2023-05-13T08:25:56.854Z,77.03
2023-05-13T08:26:58.790Z,76.77
2023-05-13T08:28:00.665Z,76.54
2023-05-13T08:29:02.484Z,77.83
2023-05-13T08:30:05.148Z,76.48
2023-05-13T08:31:06.994Z,76.08
2023-05-13T08:32:08.938Z,75.40
2023-05-13T08:33:11.869Z,74.97
2023-05-13T08:34:13.793Z,74.82
2023-05-13T08:35:15.646Z,74.50
2023-05-13T08:36:17.576Z,74.22
2023-05-13T08:37:19.467Z,73.43
2023-05-13T08:38:21.429Z,73.88
2023-05-13T08:39:23.489Z,73.45
2023-05-13T08:40:25.364Z,73.48
2023-05-13T08:41:27.271Z,73.85
2023-05-13T08:42:29.268Z,73.36
2023-05-13T08:43:32.860Z,73.32
2023-05-13T08:44:39.996Z,73.46
2023-05-13T08:45:42.345Z,73.48
2023-05-13T08:46:51.245Z,72.08
2023-05-13T08:47:57.181Z,71.15
2023-05-13T08:48:59.400Z,70.77
2023-05-13T08:50:01.543Z,69.67
2023-05-13T08:51:03.614Z,70.15
2023-05-13T08:52:05.845Z,69.08
2023-05-13T08:53:08.008Z,67.84
2023-05-13T08:54:11.103Z,67.96
2023-05-13T08:55:13.581Z,68.61
2023-05-13T08:56:15.451Z,68.88
2023-05-13T08:57:17.290Z,67.98
2023-05-13T08:58:19.347Z,67.97
2023-05-13T08:59:21.186Z,67.71
2023-05-13T09:00:23.150Z,66.95
2023-05-13T09:01:26.831Z,66.46
2023-05-13T09:02:30.029Z,64.44
2023-05-13T09:03:31.983Z,64.94
2023-05-13T09:04:37.903Z,63.22
2023-05-13T09:05:39.999Z,64.20
2023-05-13T09:06:41.904Z,65.21
2023-05-13T09:07:43.819Z,66.15
2023-05-13T09:08:45.866Z,64.65
2023-05-13T09:09:47.833Z,61.04
2023-05-13T09:10:49.710Z,61.92
2023-05-13T09:11:51.576Z,63.49
2023-05-13T09:12:54.650Z,63.45
2023-05-13T09:13:58.122Z,65.58
2023-05-13T09:15:00.042Z,63.45
2023-05-13T09:16:02.624Z,64.39
2023-05-13T09:17:04.833Z,62.71
2023-05-13T09:18:07.840Z,63.18
2023-05-13T09:19:11.670Z,59.29
2023-05-13T09:20:15.710Z,61.99
2023-05-13T09:21:43.678Z,60.67
2023-05-13T09:22:54.702Z,59.54
2023-05-13T09:24:02.784Z,58.92
2023-05-13T09:25:04.898Z,59.07
2023-05-13T09:26:09.361Z,58.16
2023-05-13T09:27:11.244Z,55.39
2023-05-13T09:28:14.968Z,54.75
2023-05-13T09:29:24.388Z,54.84
2023-05-13T09:30:27.516Z,52.43
2023-05-13T09:31:35.317Z,52.42
2023-05-13T09:32:38.058Z,52.84
2023-05-13T09:33:52.291Z,55.78
2023-05-13T09:34:54.108Z,52.25
2023-05-13T09:35:55.978Z,54.36
2023-05-13T09:37:05.321Z,54.62
2023-05-13T09:38:17.243Z,50.92
2023-05-13T09:39:19.097Z,52.56
2023-05-13T09:40:21.310Z,54.64
2023-05-13T09:41:25.777Z,55.62
2023-05-13T09:42:27.749Z,55.65
2023-05-13T09:43:32.718Z,55.66
2023-05-13T09:44:34.646Z,53.88
2023-05-13T09:45:36.411Z,53.34
2023-05-13T09:46:38.284Z,50.61
2023-05-13T09:47:41.159Z,53.49
2023-05-13T09:48:43.811Z,53.41
2023-05-13T09:49:46.265Z,53.34
2023-05-13T09:50:52.638Z,54.42
2023-05-13T09:51:54.457Z,52.56
2023-05-13T09:52:56.360Z,51.17
2023-05-13T09:54:07.609Z,52.33
2023-05-13T09:55:09.784Z,54.47
2023-05-13T09:56:11.651Z,55.67
2023-05-13T09:57:13.917Z,53.31
2023-05-13T09:58:16.445Z,51.81
2023-05-13T09:59:18.429Z,50.19
2023-05-13T10:00:31.515Z,50.79
2023-05-13T10:01:35.785Z,53.27
2023-05-13T10:02:38.723Z,53.05
2023-05-13T10:03:40.738Z,53.37
2023-05-13T10:04:43.545Z,53.99
2023-05-13T10:05:45.368Z,54.72
2023-05-13T10:06:47.991Z,54.38
2023-05-13T10:07:49.959Z,54.92
2023-05-13T10:08:52.884Z,56.44
2023-05-13T10:09:58.919Z,55.83
2023-05-13T10:11:00.953Z,56.04
2023-05-13T10:12:03.838Z,57.60
2023-05-13T10:13:07.272Z,57.07
2023-05-13T10:14:09.337Z,57.79
2023-05-13T10:15:11.369Z,58.20
2023-05-13T10:16:13.472Z,58.52
2023-05-13T10:17:15.585Z,58.47
2023-05-13T10:18:18.587Z,59.48
2023-05-13T10:19:21.595Z,59.05
2023-05-13T10:20:24.930Z,58.69
2023-05-13T10:21:29.870Z,58.39
2023-05-13T10:22:32.800Z,59.99
2023-05-13T10:23:34.983Z,60.53
2023-05-13T10:24:38.781Z,60.69
2023-05-13T10:25:42.310Z,58.88
2023-05-13T10:26:44.558Z,59.30
2023-05-13T10:27:46.803Z,59.49
2023-05-13T10:28:49.966Z,59.80
2023-05-13T10:29:54.734Z,59.19
2023-05-13T10:30:57.420Z,59.99
2023-05-13T10:32:00.418Z,59.47
2023-05-13T10:33:03.392Z,59.83
2023-05-13T10:34:05.368Z,60.40
2023-05-13T10:35:10.979Z,61.26
2023-05-13T10:36:12.856Z,60.53
2023-05-13T10:37:24.264Z,61.07
2023-05-13T10:38:32.284Z,61.25
2023-05-13T10:39:42.232Z,61.67
2023-05-13T10:41:02.562Z,60.63
2023-05-13T10:42:19.716Z,61.65
2023-05-13T10:43:22.266Z,60.35
2023-05-13T10:44:24.190Z,59.55
2023-05-13T10:45:27.443Z,57.46
2023-05-13T10:46:29.520Z,56.08
2023-05-13T10:47:33.664Z,55.83
2023-05-13T10:48:41.121Z,53.98
2023-05-13T10:49:50.300Z,52.65
2023-05-13T10:51:01.850Z,52.41
2023-05-13T10:52:07.537Z,54.16
2023-05-13T10:53:13.020Z,54.77
2023-05-13T10:54:22.049Z,54.98
2023-05-13T10:55:24.213Z,55.82
2023-05-13T10:56:28.094Z,53.85
2023-05-13T10:57:36.185Z,53.64
2023-05-13T10:58:38.780Z,55.70
2023-05-13T11:00:00.716Z,53.15
2023-05-13T11:01:14.999Z,54.23
2023-05-13T11:02:24.051Z,56.11
2023-05-13T11:03:30.233Z,55.16
2023-05-13T11:04:32.188Z,54.94
2023-05-13T11:05:34.048Z,53.01
2023-05-13T11:06:37.237Z,51.54
2023-05-13T11:07:39.908Z,52.71
2023-05-13T11:08:46.176Z,51.47
2023-05-13T11:09:51.788Z,51.59
2023-05-13T11:10:56.800Z,53.10
2023-05-13T11:11:59.407Z,52.97
2023-05-13T11:13:09.560Z,52.82
2023-05-13T11:14:18.168Z,52.01
2023-05-13T11:15:23.036Z,46.42
2023-05-13T11:16:24.954Z,45.30
2023-05-13T11:17:26.834Z,47.06
2023-05-13T11:18:31.931Z,49.79
2023-05-13T11:19:36.019Z,49.35
2023-05-13T11:20:51.523Z,50.26
2023-05-13T11:21:58.230Z,49.72
2023-05-13T11:23:01.246Z,47.57
2023-05-13T11:24:04.510Z,48.91
2023-05-13T11:25:08.519Z,47.79
2023-05-13T11:26:12.657Z,48.39
2023-05-13T11:27:16.258Z,50.05
2023-05-13T11:28:20.965Z,51.51
2023-05-13T11:29:32.682Z,50.49
2023-05-13T11:30:34.668Z,51.59
2023-05-13T11:31:47.776Z,52.90
2023-05-13T11:32:59.714Z,53.72
2023-05-13T11:34:13.903Z,54.27
2023-05-13T11:35:20.177Z,54.52
2023-05-13T11:36:22.179Z,54.55
2023-05-13T11:37:24.034Z,54.45
2023-05-13T11:38:25.955Z,53.34
2023-05-13T11:39:27.929Z,51.43
2023-05-13T11:40:30.997Z,51.61
2023-05-13T11:41:33.703Z,52.68
2023-05-13T11:42:35.714Z,53.55
2023-05-13T11:43:39.581Z,53.92
2023-05-13T11:44:47.659Z,51.50
2023-05-13T11:45:50.687Z,50.64
2023-05-13T11:46:54.555Z,51.10
2023-05-13T11:47:56.819Z,51.75
2023-05-13T11:48:58.661Z,52.46
2023-05-13T11:50:00.912Z,51.50
2023-05-13T11:51:02.780Z,51.58
2023-05-13T11:52:06.258Z,51.81
2023-05-13T11:53:08.341Z,51.73
2023-05-13T11:54:11.994Z,52.88
2023-05-13T11:55:24.672Z,53.76
2023-05-13T11:56:27.216Z,52.68
2023-05-13T11:57:32.980Z,53.05
2023-05-13T11:58:34.840Z,52.86
2023-05-13T11:59:47.665Z,52.45
2023-05-13T12:00:50.313Z,52.36
2023-05-13T12:02:04.617Z,52.44
2023-05-13T12:03:12.219Z,51.09
2023-05-13T12:04:14.126Z,51.41
2023-05-13T12:05:16.075Z,50.11
2023-05-13T12:06:18.490Z,50.94
2023-05-13T12:07:27.489Z,49.24
2023-05-13T12:08:30.492Z,49.17
2023-05-13T12:09:32.305Z,52.54
2023-05-13T12:10:34.249Z,49.93
2023-05-13T12:11:36.377Z,50.28
2023-05-13T12:12:38.976Z,48.99
2023-05-13T12:13:43.646Z,50.91
2023-05-13T12:14:46.587Z,52.17
2023-05-13T12:15:50.255Z,50.97
2023-05-13T12:16:52.183Z,49.06
2023-05-13T12:17:55.025Z,49.13
2023-05-13T12:19:00.440Z,47.23
2023-05-13T12:20:08.514Z,46.02
2023-05-13T12:21:17.771Z,46.93
2023-05-13T12:22:22.247Z,47.32
2023-05-13T12:23:24.117Z,44.62
2023-05-13T12:24:26.000Z,47.54
2023-05-13T12:25:37.133Z,46.09
2023-05-13T12:26:39.912Z,44.67
2023-05-13T12:27:41.843Z,45.80
2023-05-13T12:28:43.708Z,46.87
2023-05-13T12:29:45.530Z,47.60
2023-05-13T12:30:51.735Z,46.27
2023-05-13T12:32:04.109Z,43.72
2023-05-13T12:33:06.571Z,44.94
2023-05-13T12:34:08.583Z,40.10
2023-05-13T12:35:14.948Z,41.04
2023-05-13T12:36:26.384Z,40.71
2023-05-13T12:37:28.348Z,42.30
2023-05-13T12:38:30.266Z,38.86
2023-05-13T12:39:32.099Z,40.18
2023-05-13T12:40:33.981Z,40.95
2023-05-13T12:41:37.257Z,40.68
2023-05-13T12:42:39.232Z,37.86
2023-05-13T12:43:41.205Z,38.03
2023-05-13T12:44:44.780Z,41.33
2023-05-13T12:45:48.209Z,42.23
2023-05-13T12:46:51.585Z,42.77
2023-05-13T12:47:53.638Z,43.77
2023-05-13T12:48:59.758Z,42.64
2023-05-13T12:50:02.766Z,44.42
2023-05-13T12:51:04.751Z,41.57
2023-05-13T12:52:06.717Z,42.59
2023-05-13T12:53:08.671Z,45.83
2023-05-13T12:54:13.660Z,43.38
2023-05-13T12:55:15.560Z,46.52
2023-05-13T12:56:17.496Z,45.88
2023-05-13T12:57:20.792Z,47.40
2023-05-13T12:58:22.805Z,46.08
2023-05-13T12:59:24.924Z,46.70
2023-05-13T13:00:26.954Z,43.87
2023-05-13T13:01:28.882Z,42.79
2023-05-13T13:02:30.974Z,41.47
2023-05-13T13:03:32.965Z,40.84
2023-05-13T13:04:34.894Z,43.35
2023-05-13T13:05:36.875Z,41.49
2023-05-13T13:06:38.695Z,41.15
2023-05-13T13:07:42.512Z,40.62
2023-05-13T13:08:44.353Z,39.93
2023-05-13T13:09:46.328Z,40.14
2023-05-13T13:10:48.155Z,39.00
2023-05-13T13:11:50.124Z,40.31
2023-05-13T13:12:52.626Z,41.37
2023-05-13T13:13:54.470Z,39.28
2023-05-13T13:14:56.990Z,38.86
2023-05-13T13:15:59.333Z,39.12
2023-05-13T13:17:01.236Z,38.71
2023-05-13T13:18:03.086Z,40.25
2023-05-13T13:19:05.111Z,40.72
2023-05-13T13:20:07.633Z,38.85
2023-05-13T13:21:10.512Z,39.11
2023-05-13T13:22:12.402Z,39.26
2023-05-13T13:23:14.426Z,39.06
2023-05-13T13:24:16.330Z,39.28
2023-05-13T13:25:18.219Z,39.35
2023-05-13T13:26:20.053Z,40.76
2023-05-13T13:27:21.850Z,39.58
2023-05-13T13:28:23.786Z,38.60
2023-05-13T13:29:25.815Z,41.81
2023-05-13T13:30:27.687Z,38.18
2023-05-13T13:31:30.060Z,37.15